This is the latest recevied weather packets stored in our database for station/object N9CQS-13. If no packets are shown the sender has not sent any weather packets the latest 10 day(s).
| Time | Temp. | Humidity | Pressure | Rain* | Wind** | Luminosity | Snow |
|---|---|---|---|---|---|---|---|
| 1777661492 | 13.89° C | 48% | 1017.7 hPa | 0 mm | - | - | - |
| 1777660892 | 13.33° C | 53% | 1017.6 hPa | 0 mm | - | - | - |
| 1777660292 | 13.33° C | 50% | 1017.4 hPa | 0 mm | - | - | - |
| 1777659692 | 15° C | 48% | 1017.3 hPa | 0 mm | - | - | - |
| 1777659092 | 13.33° C | 51% | 1017.5 hPa | 0 mm | - | - | - |
| 1777658492 | 12.22° C | 55% | 1017.7 hPa | 0 mm | - | - | - |
| 1777657892 | 12.78° C | 55% | 1017.7 hPa | 0 mm | - | - | - |
| 1777657292 | 12.78° C | 54% | 1017.8 hPa | 0 mm | - | - | - |
| 1777656799 | 12.22° C | 56% | 1017.9 hPa | 0 mm | - | - | - |
| 1777656283 | 12.22° C | 56% | 1017.9 hPa | 0 mm | - | - | - |
| 1777655492 | 12.78° C | 55% | 1017.9 hPa | 0 mm | - | - | - |
| 1777654892 | 13.33° C | 55% | 1017.9 hPa | 0 mm | - | - | - |
| 1777654292 | 12.78° C | 57% | 1017.9 hPa | 0 mm | - | - | - |
| 1777653692 | 12.78° C | 56% | 1017.9 hPa | 0 mm | - | - | - |
| 1777653092 | 11.11° C | 61% | 1018.1 hPa | 0 mm | - | - | - |
| 1777652492 | 12.22° C | 60% | 1017.9 hPa | 0 mm | - | - | - |
| 1777651892 | 11.67° C | 60% | 1018 hPa | 0 mm | - | - | - |
| 1777651292 | 11.11° C | 58% | 1018.1 hPa | 0 mm | - | - | - |
| 1777650692 | 11.11° C | 63% | 1018 hPa | 0 mm | - | - | - |
| 1777650092 | 10° C | 65% | 1017.9 hPa | 0 mm | - | - | - |
| 1777649492 | 10.56° C | 63% | 1017.7 hPa | 0 mm | - | - | - |
| 1777648892 | 10° C | 68% | 1017.7 hPa | 0 mm | - | - | - |
| 1777648293 | 9.44° C | 69% | 1017.8 hPa | 0 mm | - | - | - |
| 1777647692 | 8.89° C | 71% | 1017.8 hPa | 0 mm | - | - | - |
| 1777647092 | 8.89° C | 70% | 1017.8 hPa | 0 mm | - | - | - |
* Rain latest hour (hover to see other rain measurements)
** Current wind speed in m/s (hover to see current wind gust speed)